Time,TemperatureF,DewpointF,PressureIn,WindDirection,WindDirectionDegrees,WindSpeedMPH,WindSpeedGustMPH,Humidity,HourlyPrecipIn,Conditions,Clouds,dailyrainin,SoftwareType,DateUTC
2013-10-04 00:32:00,63.1,44.2,31.03,SSW,199,5.0,6.0,50,0.00,,,0.00,meteohub,2013-10-04 04:32:00,
2013-10-04 00:35:00,63.1,44.8,31.03,South,191,5.0,6.0,51,0.00,,,0.00,meteohub,2013-10-04 04:35:00,
2013-10-04 00:37:00,63.1,44.8,31.03,SSW,194,5.0,6.0,51,0.00,,,0.00,meteohub,2013-10-04 04:37:00,
2013-10-04 00:38:00,63.1,44.8,31.03,SSW,201,4.0,6.0,51,0.00,,,0.00,meteohub,2013-10-04 04:38:00,
2013-10-04 00:43:00,63.1,45.1,31.03,SSW,205,4.0,6.0,52,0.00,,,0.00,meteohub,2013-10-04 04:43:00,
2013-10-04 00:45:00,63.1,45.1,31.03,SSW,200,4.0,6.0,52,0.00,,,0.00,meteohub,2013-10-04 04:45:00,
2013-10-04 00:47:00,63.1,45.1,31.03,South,187,5.0,6.0,52,0.00,,,0.00,meteohub,2013-10-04 04:47:00,
2013-10-04 00:48:00,63.1,45.1,31.03,South,182,4.0,6.0,52,0.00,,,0.00,meteohub,2013-10-04 04:48:00,
2013-10-04 00:54:00,63.1,45.1,31.03,SSW,195,4.0,6.0,52,0.00,,,0.00,meteohub,2013-10-04 04:54:00,
2013-10-04 00:55:00,63.1,45.1,31.03,SSW,194,4.0,6.0,52,0.00,,,0.00,meteohub,2013-10-04 04:55:00,
2013-10-04 01:01:00,63.0,45.1,31.03,SSW,193,3.0,6.0,52,0.00,,,0.00,meteohub,2013-10-04 05:01:00,
2013-10-04 01:03:00,63.0,45.1,31.03,SSW,208,4.0,6.0,52,0.00,,,0.00,meteohub,2013-10-04 05:03:00,
2013-10-04 01:07:00,63.0,45.5,31.03,SSW,198,4.0,5.0,53,0.00,,,0.00,meteohub,2013-10-04 05:07:00,
2013-10-04 01:09:00,63.0,45.1,31.03,SSW,195,3.0,5.0,52,0.00,,,0.00,meteohub,2013-10-04 05:09:00,
2013-10-04 01:10:00,63.0,45.1,31.03,South,191,4.0,5.0,52,0.00,,,0.00,meteohub,2013-10-04 05:10:00,
2013-10-04 01:14:00,63.0,45.5,31.03,South,188,4.0,5.0,53,0.00,,,0.00,meteohub,2013-10-04 05:14:00,
2013-10-04 01:18:00,63.0,45.5,31.03,South,184,3.0,5.0,53,0.00,,,0.00,meteohub,2013-10-04 05:18:00,
2013-10-04 01:22:00,63.0,45.5,31.03,SSW,193,4.0,6.0,53,0.00,,,0.00,meteohub,2013-10-04 05:22:00,
2013-10-04 01:26:00,62.8,45.3,31.03,SSW,197,4.0,6.0,53,0.00,,,0.00,meteohub,2013-10-04 05:26:00,
2013-10-04 01:27:00,62.8,45.3,31.03,South,185,5.0,6.0,53,0.00,,,0.00,meteohub,2013-10-04 05:27:00,
2013-10-04 01:32:00,62.8,45.3,31.03,SSW,200,4.0,6.0,53,0.00,,,0.00,meteohub,2013-10-04 05:32:00,
2013-10-04 01:37:00,62.8,45.3,31.03,SSW,202,3.0,6.0,53,0.00,,,0.00,meteohub,2013-10-04 05:37:00,
2013-10-04 01:42:00,62.6,45.1,31.03,SSW,208,3.0,6.0,53,0.00,,,0.00,meteohub,2013-10-04 05:42:00,
2013-10-04 01:47:00,62.4,45.1,31.03,SSW,208,3.0,5.0,53,0.00,,,0.00,meteohub,2013-10-04 05:47:00,
2013-10-04 01:52:00,62.4,45.1,31.03,SSW,208,0.0,4.0,53,0.00,,,0.00,meteohub,2013-10-04 05:52:00,
2013-10-04 01:57:00,62.2,44.4,31.03,SSW,205,4.0,4.0,52,0.00,,,0.00,meteohub,2013-10-04 05:57:00,
2013-10-04 02:02:00,62.1,44.2,31.03,SSW,205,2.0,4.0,52,0.00,,,0.00,meteohub,2013-10-04 06:02:00,
2013-10-04 02:07:00,61.9,44.1,31.03,SSW,205,0.0,4.0,52,0.00,,,0.00,meteohub,2013-10-04 06:07:00,
2013-10-04 02:12:00,61.7,43.9,31.03,SSW,205,0.0,4.0,52,0.00,,,0.00,meteohub,2013-10-04 06:12:00,
2013-10-04 02:17:00,61.5,43.7,31.03,SSW,201,4.0,4.0,52,0.00,,,0.00,meteohub,2013-10-04 06:17:00,
2013-10-04 02:22:00,61.3,43.5,31.03,SSW,201,3.0,4.0,52,0.00,,,0.00,meteohub,2013-10-04 06:22:00,
2013-10-04 02:27:00,61.2,43.3,31.03,SSW,200,4.0,4.0,52,0.00,,,0.00,meteohub,2013-10-04 06:27:00,
2013-10-04 02:32:00,61.0,43.2,31.03,SSW,200,2.0,4.0,52,0.00,,,0.00,meteohub,2013-10-04 06:32:00,
2013-10-04 02:37:00,61.0,43.2,31.03,SSW,200,2.0,4.0,52,0.00,,,0.00,meteohub,2013-10-04 06:37:00,
2013-10-04 02:42:00,61.0,43.2,31.03,SSW,195,0.0,4.0,52,0.00,,,0.00,meteohub,2013-10-04 06:42:00,
2013-10-04 02:47:00,60.8,43.0,31.03,South,189,3.0,4.0,52,0.00,,,0.00,meteohub,2013-10-04 06:47:00,
2013-10-04 02:52:00,60.6,43.3,31.03,South,184,3.0,4.0,53,0.00,,,0.00,meteohub,2013-10-04 06:52:00,
2013-10-04 02:57:00,60.6,43.3,31.03,South,184,2.0,4.0,53,0.00,,,0.00,meteohub,2013-10-04 06:57:00,
2013-10-04 03:02:00,60.4,42.8,31.03,South,184,0.0,4.0,52,0.00,,,0.00,meteohub,2013-10-04 07:02:00,
2013-10-04 03:07:00,60.1,42.4,31.03,South,185,0.0,4.0,52,0.00,,,0.00,meteohub,2013-10-04 07:07:00,
2013-10-04 03:12:00,59.7,42.1,31.03,South,184,0.0,3.0,52,0.00,,,0.00,meteohub,2013-10-04 07:12:00,
2013-10-04 03:17:00,59.4,41.7,31.03,South,184,0.0,0.0,52,0.00,,,0.00,meteohub,2013-10-04 07:17:00,
2013-10-04 03:22:00,59.0,40.8,31.03,South,184,0.0,0.0,51,0.00,,,0.00,meteohub,2013-10-04 07:22:00,
2013-10-04 03:27:00,58.6,40.6,31.03,South,184,0.0,0.0,51,0.00,,,0.00,meteohub,2013-10-04 07:27:00,
2013-10-04 03:32:00,58.3,40.3,31.03,South,184,0.0,0.0,51,0.00,,,0.00,meteohub,2013-10-04 07:32:00,
2013-10-04 03:37:00,58.1,40.1,31.03,South,184,0.0,0.0,51,0.00,,,0.00,meteohub,2013-10-04 07:37:00,
2013-10-04 03:42:00,57.9,39.9,31.03,South,184,0.0,0.0,51,0.00,,,0.00,meteohub,2013-10-04 07:42:00,
2013-10-04 03:47:00,57.7,39.7,31.03,South,184,0.0,0.0,51,0.00,,,0.00,meteohub,2013-10-04 07:47:00,
2013-10-04 03:52:00,57.6,39.6,31.03,South,184,0.0,0.0,51,0.00,,,0.00,meteohub,2013-10-04 07:52:00,
2013-10-04 03:57:00,57.6,39.6,31.03,South,185,2.0,0.0,51,0.00,,,0.00,meteohub,2013-10-04 07:57:00,
2013-10-04 04:02:00,57.4,39.4,31.03,SSW,203,3.0,3.0,51,0.00,,,0.00,meteohub,2013-10-04 08:02:00,
2013-10-04 04:07:00,57.2,39.2,31.03,SSW,206,0.0,3.0,51,0.00,,,0.00,meteohub,2013-10-04 08:07:00,
2013-10-04 04:12:00,57.2,38.7,31.03,SSW,206,0.0,3.0,50,0.00,,,0.00,meteohub,2013-10-04 08:12:00,
2013-10-04 04:17:00,57.0,39.0,31.03,SSW,206,2.0,3.0,51,0.00,,,0.00,meteohub,2013-10-04 08:17:00,
2013-10-04 04:22:00,57.0,39.0,31.03,SSW,206,2.0,2.0,51,0.00,,,0.00,meteohub,2013-10-04 08:22:00,
2013-10-04 04:28:00,57.0,39.0,31.03,SSW,206,0.0,2.0,51,0.00,,,0.00,meteohub,2013-10-04 08:28:00,
2013-10-04 04:33:00,57.0,39.0,31.03,SSW,206,0.0,2.0,51,0.00,,,0.00,meteohub,2013-10-04 08:33:00,
2013-10-04 04:38:00,57.0,39.0,31.03,SSW,206,0.0,2.0,51,0.00,,,0.00,meteohub,2013-10-04 08:38:00,
2013-10-04 04:43:00,57.0,39.0,31.03,SSW,206,0.0,0.0,51,0.00,,,0.00,meteohub,2013-10-04 08:43:00,
2013-10-04 04:48:00,57.0,39.0,31.03,SSW,206,0.0,0.0,51,0.00,,,0.00,meteohub,2013-10-04 08:48:00,
2013-10-04 04:53:00,56.8,38.8,31.03,SSW,205,3.0,0.0,51,0.00,,,0.00,meteohub,2013-10-04 08:53:00,
2013-10-04 04:59:00,57.0,39.0,31.03,SSW,204,3.0,4.0,51,0.00,,,0.00,meteohub,2013-10-04 08:59:00,
2013-10-04 05:04:00,57.2,39.7,31.03,SSW,201,3.0,4.0,52,0.00,,,0.00,meteohub,2013-10-04 09:04:00,
2013-10-04 05:09:00,57.6,40.1,31.03,SSW,201,4.0,4.0,52,0.00,,,0.00,meteohub,2013-10-04 09:09:00,
2013-10-04 05:15:00,57.7,40.6,31.03,SSW,201,4.0,4.0,53,0.00,,,0.00,meteohub,2013-10-04 09:15:00,
2013-10-04 05:20:00,57.9,40.8,31.03,SSW,194,5.0,5.0,53,0.00,,,0.00,meteohub,2013-10-04 09:20:00,
2013-10-04 05:25:00,58.3,41.7,31.03,SSW,197,4.0,5.0,54,0.00,,,0.00,meteohub,2013-10-04 09:25:00,
2013-10-04 05:30:00,58.5,42.4,31.03,SSW,197,5.0,6.0,55,0.00,,,0.00,meteohub,2013-10-04 09:30:00,
2013-10-04 05:35:00,58.5,42.8,31.03,SSW,200,5.0,6.0,56,0.00,,,0.00,meteohub,2013-10-04 09:35:00,
2013-10-04 05:41:00,58.6,43.5,31.03,SSW,205,5.0,6.0,57,0.00,,,0.00,meteohub,2013-10-04 09:41:00,
2013-10-04 05:46:00,58.8,43.7,31.03,SSW,205,4.0,5.0,57,0.00,,,0.00,meteohub,2013-10-04 09:46:00,
2013-10-04 05:51:00,58.8,43.7,31.03,SSW,205,5.0,5.0,57,0.00,,,0.00,meteohub,2013-10-04 09:51:00,
2013-10-04 05:56:00,58.8,43.7,31.03,SSW,203,5.0,5.0,57,0.00,,,0.00,meteohub,2013-10-04 09:56:00,
2013-10-04 06:02:00,59.0,44.2,31.03,SSW,204,4.0,5.0,58,0.00,,,0.00,meteohub,2013-10-04 10:02:00,
2013-10-04 06:07:00,59.2,44.8,31.03,SSW,203,4.0,5.0,59,0.00,,,0.00,meteohub,2013-10-04 10:07:00,
2013-10-04 06:12:00,59.4,45.0,31.03,SSW,207,4.0,5.0,59,0.00,,,0.00,meteohub,2013-10-04 10:12:00,
2013-10-04 06:17:00,59.2,45.3,31.03,SW,214,4.0,5.0,60,0.00,,,0.00,meteohub,2013-10-04 10:17:00,
2013-10-04 06:23:00,59.4,45.9,31.03,SSW,212,4.0,5.0,61,0.00,,,0.00,meteohub,2013-10-04 10:23:00,
2013-10-04 06:28:00,59.5,46.9,31.03,SW,231,4.0,5.0,63,0.00,,,0.00,meteohub,2013-10-04 10:28:00,
2013-10-04 06:33:00,59.5,46.0,31.03,SSW,209,3.0,5.0,61,0.00,,,0.00,meteohub,2013-10-04 10:33:00,
2013-10-04 06:38:00,59.4,45.9,31.03,SSW,211,4.0,5.0,61,0.00,,,0.00,meteohub,2013-10-04 10:38:00,
2013-10-04 06:44:00,59.5,46.9,31.03,SSW,193,4.0,5.0,63,0.00,,,0.00,meteohub,2013-10-04 10:44:00,
2013-10-04 06:49:00,59.7,47.5,31.03,SW,218,4.0,5.0,64,0.00,,,0.00,meteohub,2013-10-04 10:49:00,
2013-10-04 06:54:00,59.5,46.0,31.03,SW,216,4.0,4.0,61,0.00,,,0.00,meteohub,2013-10-04 10:54:00,
2013-10-04 06:59:00,59.5,46.0,31.03,SW,228,4.0,5.0,61,0.00,,,0.00,meteohub,2013-10-04 10:59:00,
2013-10-04 07:05:00,59.7,46.2,31.03,SW,226,3.0,5.0,61,0.00,,,0.00,meteohub,2013-10-04 11:05:00,
2013-10-04 07:10:00,59.7,45.9,31.03,SW,226,3.0,4.0,60,0.00,,,0.00,meteohub,2013-10-04 11:10:00,
2013-10-04 07:15:00,59.7,45.3,31.03,SW,215,2.0,4.0,59,0.00,,,0.00,meteohub,2013-10-04 11:15:00,
2013-10-04 07:20:00,59.7,45.3,31.03,SW,217,2.0,4.0,59,0.00,,,0.00,meteohub,2013-10-04 11:20:00,
2013-10-04 07:26:00,60.1,45.7,31.03,SW,218,0.0,4.0,59,0.00,,,0.00,meteohub,2013-10-04 11:26:00,
2013-10-04 07:31:00,60.3,45.9,31.03,SW,225,3.0,3.0,59,0.00,,,0.00,meteohub,2013-10-04 11:31:00,
2013-10-04 07:36:00,60.1,44.8,31.03,SW,225,2.0,3.0,57,0.00,,,0.00,meteohub,2013-10-04 11:36:00,
2013-10-04 07:42:00,60.1,44.4,31.03,SW,229,3.0,3.0,56,0.00,,,0.00,meteohub,2013-10-04 11:42:00,
2013-10-04 07:47:00,60.4,44.2,31.03,SW,234,4.0,4.0,55,0.00,,,0.00,meteohub,2013-10-04 11:47:00,
2013-10-04 07:52:00,60.6,44.8,31.03,WSW,257,3.0,4.0,56,0.00,,,0.00,meteohub,2013-10-04 11:52:00,
2013-10-04 07:57:00,60.8,44.6,31.03,WSW,255,0.0,4.0,55,0.00,,,0.00,meteohub,2013-10-04 11:57:00,
2013-10-04 08:02:00,61.0,44.2,31.03,West,266,4.0,4.0,54,0.00,,,0.00,meteohub,2013-10-04 12:02:00,
2013-10-04 08:07:00,61.2,44.4,31.03,West,274,0.0,4.0,54,0.00,,,0.00,meteohub,2013-10-04 12:07:00,
2013-10-04 08:12:00,61.2,43.9,31.03,West,274,0.0,4.0,53,0.00,,,0.00,meteohub,2013-10-04 12:12:00,
2013-10-04 08:17:00,61.2,43.0,31.03,West,273,0.0,4.0,51,0.00,,,0.00,meteohub,2013-10-04 12:17:00,
2013-10-04 08:22:00,61.2,40.8,31.03,WSW,248,0.0,4.0,47,0.00,,,0.00,meteohub,2013-10-04 12:22:00,
2013-10-04 08:27:00,61.5,40.5,31.03,WSW,248,0.0,4.0,46,0.00,,,0.00,meteohub,2013-10-04 12:27:00,
2013-10-04 08:32:00,61.7,39.6,31.03,WSW,248,0.0,4.0,44,0.00,,,0.00,meteohub,2013-10-04 12:32:00,
2013-10-04 08:37:00,61.9,37.9,31.03,West,261,0.0,4.0,41,0.00,,,0.00,meteohub,2013-10-04 12:37:00,
2013-10-04 08:42:00,62.4,39.0,31.03,West,260,0.0,4.0,42,0.00,,,0.00,meteohub,2013-10-04 12:42:00,
2013-10-04 08:47:00,62.8,38.1,31.03,West,266,0.0,4.0,40,0.00,,,0.00,meteohub,2013-10-04 12:47:00,
2013-10-04 08:53:00,63.1,37.8,31.03,West,266,3.0,4.0,39,0.00,,,0.00,meteohub,2013-10-04 12:53:00,
2013-10-04 08:58:00,63.7,38.3,31.03,West,266,3.0,4.0,39,0.00,,,0.00,meteohub,2013-10-04 12:58:00,
2013-10-04 09:03:00,64.0,38.7,31.03,West,266,0.0,3.0,39,0.00,,,0.00,meteohub,2013-10-04 13:03:00,
2013-10-04 09:08:00,64.0,35.8,31.03,West,266,0.0,3.0,35,0.00,,,0.00,meteohub,2013-10-04 13:08:00,
2013-10-04 09:14:00,64.6,36.3,31.03,SW,227,0.0,3.0,35,0.00,,,0.00,meteohub,2013-10-04 13:14:00,
2013-10-04 09:19:00,64.9,36.7,31.03,SW,229,0.0,3.0,35,0.00,,,0.00,meteohub,2013-10-04 13:19:00,
2013-10-04 09:24:00,65.1,36.1,31.03,WNW,283,0.0,3.0,34,0.00,,,0.00,meteohub,2013-10-04 13:24:00,
2013-10-04 09:29:00,65.5,35.6,31.03,West,274,3.0,4.0,33,0.00,,,0.00,meteohub,2013-10-04 13:29:00,
2013-10-04 09:35:00,66.0,36.9,31.03,West,273,0.0,4.0,34,0.00,,,0.00,meteohub,2013-10-04 13:35:00,
2013-10-04 09:40:00,66.7,36.7,31.03,West,273,0.0,4.0,33,0.00,,,0.00,meteohub,2013-10-04 13:40:00,
2013-10-04 09:45:00,67.1,37.0,31.03,West,274,0.0,3.0,33,0.00,,,0.00,meteohub,2013-10-04 13:45:00,
2013-10-04 09:50:00,67.1,37.0,31.03,West,273,0.0,0.0,33,0.00,,,0.00,meteohub,2013-10-04 13:50:00,
2013-10-04 09:55:00,67.5,38.1,31.03,South,176,4.0,0.0,34,0.00,,,0.00,meteohub,2013-10-04 13:55:00,
2013-10-04 10:01:00,67.3,37.9,31.03,SSE,155,4.0,4.0,34,0.00,,,0.00,meteohub,2013-10-04 14:01:00,
2013-10-04 10:06:00,67.5,38.1,31.03,SSE,155,0.0,5.0,34,0.00,,,0.00,meteohub,2013-10-04 14:06:00,
2013-10-04 10:11:00,67.8,39.2,31.03,SSE,155,3.0,5.0,35,0.00,,,0.00,meteohub,2013-10-04 14:11:00,
2013-10-04 10:16:00,68.4,38.8,31.03,SSE,155,0.0,5.0,34,0.00,,,0.00,meteohub,2013-10-04 14:16:00,
2013-10-04 10:21:00,68.9,39.4,31.03,East,96,5.0,5.0,34,0.00,,,0.00,meteohub,2013-10-04 14:21:00,
2013-10-04 10:26:00,69.1,39.6,31.03,East,100,5.0,5.0,34,0.00,,,0.00,meteohub,2013-10-04 14:26:00,
2013-10-04 10:32:00,69.6,39.9,31.03,ESE,105,3.0,5.0,34,0.00,,,0.00,meteohub,2013-10-04 14:32:00,
2013-10-04 10:37:00,69.6,38.5,31.03,ESE,111,4.0,6.0,32,0.00,,,0.00,meteohub,2013-10-04 14:37:00,
2013-10-04 10:42:00,69.6,39.2,31.03,ESE,117,3.0,6.0,33,0.00,,,0.00,meteohub,2013-10-04 14:42:00,
2013-10-04 10:47:00,69.6,39.2,31.03,ESE,113,3.0,5.0,33,0.00,,,0.00,meteohub,2013-10-04 14:47:00,
2013-10-04 10:52:00,69.6,39.2,31.03,East,95,3.0,5.0,33,0.00,,,0.00,meteohub,2013-10-04 14:52:00,
2013-10-04 10:57:00,69.8,38.7,31.03,East,91,5.0,5.0,32,0.00,,,0.00,meteohub,2013-10-04 14:57:00,
2013-10-04 11:02:00,69.6,38.5,31.03,ESE,102,4.0,5.0,32,0.00,,,0.00,meteohub,2013-10-04 15:02:00,
2013-10-04 11:07:00,70.0,39.6,31.03,East,91,4.0,5.0,33,0.00,,,0.00,meteohub,2013-10-04 15:07:00,
2013-10-04 11:12:00,70.5,39.2,31.03,East,100,5.0,6.0,32,0.00,,,0.00,meteohub,2013-10-04 15:12:00,
2013-10-04 11:17:00,71.1,38.8,31.03,East,86,3.0,6.0,31,0.00,,,0.00,meteohub,2013-10-04 15:17:00,
2013-10-04 11:18:00,71.2,39.9,31.03,ESE,109,5.0,6.0,32,0.00,,,0.00,meteohub,2013-10-04 15:18:00,
2013-10-04 11:23:00,70.9,36.1,31.03,East,100,5.0,6.0,28,0.00,,,0.00,meteohub,2013-10-04 15:23:00,
2013-10-04 11:28:00,70.9,36.1,31.03,East,97,4.0,6.0,28,0.00,,,0.00,meteohub,2013-10-04 15:28:00,
2013-10-04 11:33:00,70.5,35.8,31.03,East,86,3.0,6.0,28,0.00,,,0.00,meteohub,2013-10-04 15:33:00,
2013-10-04 11:38:00,70.2,34.7,31.03,East,80,3.0,5.0,27,0.00,,,0.00,meteohub,2013-10-04 15:38:00,
2013-10-04 11:43:00,70.0,36.3,31.03,NE,39,4.0,5.0,29,0.00,,,0.00,meteohub,2013-10-04 15:43:00,
2013-10-04 11:49:00,70.0,36.3,31.03,East,82,3.0,4.0,29,0.00,,,0.00,meteohub,2013-10-04 15:49:00,
2013-10-04 11:54:00,69.8,37.0,31.03,East,82,3.0,4.0,30,0.00,,,0.00,meteohub,2013-10-04 15:54:00,
2013-10-04 11:59:00,69.6,36.9,31.03,East,100,3.0,4.0,30,0.00,,,0.00,meteohub,2013-10-04 15:59:00,
2013-10-04 12:04:00,69.6,36.9,31.03,ENE,70,3.0,4.0,30,0.00,,,0.00,meteohub,2013-10-04 16:04:00,
2013-10-04 12:09:00,69.4,37.4,31.03,ENE,67,0.0,4.0,31,0.00,,,0.00,meteohub,2013-10-04 16:09:00,
2013-10-04 12:14:00,69.3,36.5,31.03,East,98,3.0,4.0,30,0.00,,,0.00,meteohub,2013-10-04 16:14:00,
2013-10-04 12:20:00,69.3,34.7,31.03,East,96,2.0,4.0,28,0.00,,,0.00,meteohub,2013-10-04 16:20:00,
2013-10-04 12:25:00,69.4,35.8,31.03,East,92,0.0,4.0,29,0.00,,,0.00,meteohub,2013-10-04 16:25:00,
2013-10-04 12:30:00,69.4,34.9,31.03,East,92,3.0,4.0,28,0.00,,,0.00,meteohub,2013-10-04 16:30:00,
2013-10-04 12:35:00,69.4,36.7,31.03,ESE,103,6.0,6.0,30,0.00,,,0.00,meteohub,2013-10-04 16:35:00,
2013-10-04 12:41:00,69.6,38.5,31.03,ESE,112,5.0,6.0,32,0.00,,,0.00,meteohub,2013-10-04 16:41:00,
2013-10-04 12:46:00,69.6,38.5,31.03,ESE,116,5.0,6.0,32,0.00,,,0.00,meteohub,2013-10-04 16:46:00,
2013-10-04 12:51:00,69.6,38.5,31.03,ESE,113,4.0,6.0,32,0.00,,,0.00,meteohub,2013-10-04 16:51:00,
2013-10-04 12:56:00,69.6,38.5,31.03,SSE,147,5.0,6.0,32,0.00,,,0.00,meteohub,2013-10-04 16:56:00,
2013-10-04 13:01:00,69.6,39.2,31.03,SSE,152,3.0,6.0,33,0.00,,,0.00,meteohub,2013-10-04 17:01:00,
2013-10-04 13:06:00,69.4,38.3,31.03,SE,143,3.0,6.0,32,0.00,,,0.00,meteohub,2013-10-04 17:06:00,
2013-10-04 13:12:00,69.3,38.8,31.03,South,187,4.0,6.0,33,0.00,,,0.00,meteohub,2013-10-04 17:12:00,
2013-10-04 13:17:00,68.2,38.7,31.03,SW,214,8.0,8.0,34,0.00,,,0.00,meteohub,2013-10-04 17:17:00,
2013-10-04 13:22:00,67.6,37.6,31.03,WSW,242,8.0,17.0,33,0.00,,,0.00,meteohub,2013-10-04 17:22:00,
2013-10-04 13:27:00,66.7,36.7,31.03,WNW,293,3.0,17.0,33,0.00,,,0.00,meteohub,2013-10-04 17:27:00,
2013-10-04 13:32:00,66.7,36.7,31.03,WSW,251,8.0,17.0,33,0.00,,,0.00,meteohub,2013-10-04 17:32:00,
2013-10-04 13:37:00,66.6,36.5,31.03,WNW,301,3.0,13.0,33,0.00,,,0.00,meteohub,2013-10-04 17:37:00,
2013-10-04 14:03:00,66.6,37.4,31.03,NW,322,7.0,8.0,34,0.00,,,0.00,meteohub,2013-10-04 18:03:00,
2013-10-04 14:08:00,66.4,38.7,31.03,WNW,291,10.0,10.0,36,0.00,,,0.00,meteohub,2013-10-04 18:08:00,
2013-10-04 14:13:00,66.0,39.7,31.03,WNW,296,6.0,10.0,38,0.00,,,0.00,meteohub,2013-10-04 18:13:00,
2013-10-04 14:18:00,65.8,42.8,31.03,WNW,292,9.0,11.0,43,0.00,,,0.00,meteohub,2013-10-04 18:18:00,
2013-10-04 14:24:00,65.5,43.5,31.03,WNW,292,8.0,11.0,45,0.00,,,0.00,meteohub,2013-10-04 18:24:00,
2013-10-04 14:29:00,65.5,44.2,31.03,WNW,298,6.0,12.0,46,0.00,,,0.00,meteohub,2013-10-04 18:29:00,
2013-10-04 14:34:00,65.7,45.5,31.03,WNW,282,8.0,12.0,48,0.00,,,0.00,meteohub,2013-10-04 18:34:00,
2013-10-04 14:39:00,65.8,45.7,31.03,West,279,4.0,9.0,48,0.00,,,0.00,meteohub,2013-10-04 18:39:00,
2013-10-04 14:44:00,65.8,45.7,31.03,West,278,5.0,11.0,48,0.00,,,0.00,meteohub,2013-10-04 18:44:00,
2013-10-04 14:49:00,65.8,45.7,31.03,WNW,301,8.0,11.0,48,0.00,,,0.00,meteohub,2013-10-04 18:49:00,
2013-10-04 14:55:00,65.7,45.5,31.03,West,273,3.0,9.0,48,0.00,,,0.00,meteohub,2013-10-04 18:55:00,
2013-10-04 15:00:00,65.3,44.6,31.03,WSW,251,9.0,9.0,47,0.00,,,0.00,meteohub,2013-10-04 19:00:00,
2013-10-04 15:05:00,65.1,44.4,31.03,WNW,287,5.0,11.0,47,0.00,,,0.00,meteohub,2013-10-04 19:05:00,
2013-10-04 15:10:00,65.1,45.0,31.03,West,273,5.0,11.0,48,0.00,,,0.00,meteohub,2013-10-04 19:10:00,
2013-10-04 15:15:00,65.3,45.1,31.03,NW,312,11.0,11.0,48,0.00,,,0.00,meteohub,2013-10-04 19:15:00,
2013-10-04 15:21:00,65.1,45.0,31.03,WNW,286,8.0,11.0,48,0.00,,,0.00,meteohub,2013-10-04 19:21:00,
2013-10-04 15:26:00,64.6,43.9,31.03,SW,234,11.0,11.0,47,0.00,,,0.00,meteohub,2013-10-04 19:26:00,
2013-10-04 15:31:00,64.2,43.5,31.03,WNW,296,4.0,11.0,47,0.00,,,0.00,meteohub,2013-10-04 19:31:00,
2013-10-04 15:36:00,64.0,42.8,31.03,NW,314,5.0,11.0,46,0.00,,,0.00,meteohub,2013-10-04 19:36:00,
2013-10-04 15:41:00,63.9,42.6,31.03,NNW,330,11.0,11.0,46,0.00,,,0.00,meteohub,2013-10-04 19:41:00,
2013-10-04 15:46:00,63.7,43.2,31.03,NW,307,6.0,11.0,47,0.00,,,0.00,meteohub,2013-10-04 19:46:00,
2013-10-04 15:52:00,63.3,42.8,31.03,WNW,289,8.0,11.0,47,0.00,,,0.00,meteohub,2013-10-04 19:52:00,
2013-10-04 15:57:00,63.1,43.2,31.03,NW,317,5.0,11.0,48,0.00,,,0.00,meteohub,2013-10-04 19:57:00,
2013-10-04 16:02:00,63.0,43.0,31.03,NW,311,6.0,11.0,48,0.00,,,0.00,meteohub,2013-10-04 20:02:00,
2013-10-04 16:07:00,63.0,43.0,31.03,West,279,8.0,9.0,48,0.00,,,0.00,meteohub,2013-10-04 20:07:00,
2013-10-04 16:12:00,62.8,43.3,31.03,West,267,6.0,8.0,49,0.00,,,0.00,meteohub,2013-10-04 20:12:00,
2013-10-04 16:17:00,62.6,43.7,31.03,NW,306,5.0,9.0,50,0.00,,,0.00,meteohub,2013-10-04 20:17:00,
2013-10-04 16:22:00,62.6,44.2,31.03,West,278,7.0,9.0,51,0.00,,,0.00,meteohub,2013-10-04 20:22:00,
2013-10-04 16:27:00,62.6,44.2,31.03,NW,315,6.0,8.0,51,0.00,,,0.00,meteohub,2013-10-04 20:27:00,
2013-10-04 16:32:00,62.4,44.1,31.03,NNW,330,2.0,8.0,51,0.00,,,0.00,meteohub,2013-10-04 20:32:00,
2013-10-04 16:37:00,62.4,44.6,31.03,NNE,16,4.0,8.0,52,0.00,,,0.00,meteohub,2013-10-04 20:37:00,
2013-10-04 16:42:00,62.4,45.1,31.03,North,10,3.0,6.0,53,0.00,,,0.00,meteohub,2013-10-04 20:42:00,
2013-10-04 16:47:00,62.4,45.1,31.03,North,0,4.0,6.0,53,0.00,,,0.00,meteohub,2013-10-04 20:47:00,
2013-10-04 16:52:00,62.6,45.1,31.03,North,4,2.0,6.0,53,0.00,,,0.00,meteohub,2013-10-04 20:52:00,
2013-10-04 16:57:00,62.4,45.5,31.03,NNW,334,4.0,6.0,54,0.00,,,0.00,meteohub,2013-10-04 20:57:00,
2013-10-04 17:02:00,62.6,45.7,31.03,NW,311,3.0,6.0,54,0.00,,,0.00,meteohub,2013-10-04 21:02:00,
2013-10-04 17:07:00,62.6,45.7,31.03,WNW,295,3.0,6.0,54,0.00,,,0.00,meteohub,2013-10-04 21:07:00,
2013-10-04 17:12:00,62.8,46.4,31.03,NNW,327,0.0,5.0,55,0.00,,,0.00,meteohub,2013-10-04 21:12:00,
2013-10-04 17:17:00,63.0,46.6,31.03,NW,321,0.0,4.0,55,0.00,,,0.00,meteohub,2013-10-04 21:17:00,
2013-10-04 17:22:00,63.0,46.6,31.03,WNW,295,3.0,4.0,55,0.00,,,0.00,meteohub,2013-10-04 21:22:00,
2013-10-04 17:27:00,63.0,46.6,31.03,WNW,290,5.0,5.0,55,0.00,,,0.00,meteohub,2013-10-04 21:27:00,
2013-10-04 17:32:00,63.0,46.9,31.03,NW,307,3.0,5.0,56,0.00,,,0.00,meteohub,2013-10-04 21:32:00,
2013-10-04 17:37:00,63.0,46.9,31.03,NW,310,5.0,5.0,56,0.00,,,0.00,meteohub,2013-10-04 21:37:00,
2013-10-04 17:42:00,62.8,46.9,31.03,WNW,302,3.0,5.0,56,0.00,,,0.00,meteohub,2013-10-04 21:42:00,
2013-10-04 17:47:00,62.6,46.8,31.03,WNW,298,2.0,6.0,56,0.00,,,0.00,meteohub,2013-10-04 21:47:00,
2013-10-04 17:52:00,62.6,46.8,31.03,West,280,4.0,6.0,56,0.00,,,0.00,meteohub,2013-10-04 21:52:00,
2013-10-04 17:58:00,62.4,46.9,31.03,WNW,292,4.0,8.0,57,0.00,,,0.00,meteohub,2013-10-04 21:58:00,
2013-10-04 18:03:00,62.4,46.9,31.03,WNW,285,3.0,8.0,57,0.00,,,0.00,meteohub,2013-10-04 22:03:00,
2013-10-04 18:08:00,62.2,46.8,31.03,WNW,285,3.0,8.0,57,0.00,,,0.00,meteohub,2013-10-04 22:08:00,
2013-10-04 18:13:00,62.2,47.3,31.03,WNW,285,0.0,4.0,58,0.00,,,0.00,meteohub,2013-10-04 22:13:00,
2013-10-04 18:18:00,62.2,47.3,31.03,WNW,285,3.0,4.0,58,0.00,,,0.00,meteohub,2013-10-04 22:18:00,
2013-10-04 18:24:00,62.2,47.3,31.03,WNW,286,3.0,4.0,58,0.00,,,0.00,meteohub,2013-10-04 22:24:00,
2013-10-04 18:29:00,62.2,47.3,31.03,WNW,286,0.0,5.0,58,0.00,,,0.00,meteohub,2013-10-04 22:29:00,
2013-10-04 18:34:00,62.2,47.3,31.03,WNW,299,0.0,5.0,58,0.00,,,0.00,meteohub,2013-10-04 22:34:00,
2013-10-04 18:39:00,62.2,47.3,31.03,NW,304,0.0,5.0,58,0.00,,,0.00,meteohub,2013-10-04 22:39:00,
2013-10-04 18:45:00,62.2,47.3,31.03,NW,304,0.0,4.0,58,0.00,,,0.00,meteohub,2013-10-04 22:45:00,
2013-10-04 18:50:00,62.2,47.3,31.03,NW,304,0.0,4.0,58,0.00,,,0.00,meteohub,2013-10-04 22:50:00,
2013-10-04 18:55:00,62.1,47.1,31.03,NW,304,0.0,3.0,58,0.00,,,0.00,meteohub,2013-10-04 22:55:00,
2013-10-04 19:00:00,61.9,46.4,31.03,NW,304,0.0,0.0,57,0.00,,,0.00,meteohub,2013-10-04 23:00:00,
2013-10-04 19:05:00,61.7,46.8,31.03,WNW,294,2.0,3.0,58,0.00,,,0.00,meteohub,2013-10-04 23:05:00,
2013-10-04 19:10:00,61.7,46.8,31.03,WNW,293,0.0,4.0,58,0.00,,,0.00,meteohub,2013-10-04 23:10:00,
2013-10-04 19:16:00,61.3,46.4,31.03,WNW,293,0.0,4.0,58,0.00,,,0.00,meteohub,2013-10-04 23:16:00,
2013-10-04 19:21:00,61.3,46.4,31.03,WNW,293,0.0,4.0,58,0.00,,,0.00,meteohub,2013-10-04 23:21:00,
2013-10-04 19:26:00,61.5,46.6,31.03,WNW,293,0.0,4.0,58,0.00,,,0.00,meteohub,2013-10-04 23:26:00,
2013-10-04 19:31:00,61.7,47.3,31.03,WNW,292,3.0,0.0,59,0.00,,,0.00,meteohub,2013-10-04 23:31:00,
2013-10-04 19:36:00,61.7,47.3,31.03,WNW,288,4.0,4.0,59,0.00,,,0.00,meteohub,2013-10-04 23:36:00,
2013-10-04 19:42:00,61.9,47.5,31.03,West,278,4.0,4.0,59,0.00,,,0.00,meteohub,2013-10-04 23:42:00,
2013-10-04 19:47:00,61.9,47.5,31.03,WNW,283,3.0,4.0,59,0.00,,,0.00,meteohub,2013-10-04 23:47:00,
2013-10-04 19:52:00,61.9,47.8,31.03,WNW,293,0.0,4.0,60,0.00,,,0.00,meteohub,2013-10-04 23:52:00,
2013-10-04 19:57:00,62.1,48.0,31.03,WNW,293,0.0,4.0,60,0.00,,,0.00,meteohub,2013-10-04 23:57:00,
2013-10-04 20:02:00,62.2,48.6,31.03,North,0,0.0,4.0,61,0.00,,,0.00,meteohub,2013-10-05 00:02:00,
2013-10-04 20:07:00,62.2,48.6,31.03,West,272,4.0,4.0,61,0.00,,,0.00,meteohub,2013-10-05 00:07:00,
2013-10-04 20:12:00,62.1,48.4,31.03,West,275,0.0,5.0,61,0.00,,,0.00,meteohub,2013-10-05 00:12:00,
2013-10-04 20:17:00,61.9,48.2,31.03,WNW,294,4.0,5.0,61,0.00,,,0.00,meteohub,2013-10-05 00:17:00,
2013-10-04 20:22:00,61.7,48.2,31.03,WNW,302,2.0,5.0,61,0.00,,,0.00,meteohub,2013-10-05 00:22:00,
2013-10-04 20:27:00,61.7,48.2,31.03,West,273,5.0,5.0,61,0.00,,,0.00,meteohub,2013-10-05 00:27:00,
2013-10-04 20:32:00,61.9,48.2,31.03,West,261,3.0,5.0,61,0.00,,,0.00,meteohub,2013-10-05 00:32:00,
2013-10-04 20:37:00,61.9,48.7,31.03,West,271,4.0,5.0,62,0.00,,,0.00,meteohub,2013-10-05 00:37:00,
2013-10-04 20:42:00,62.1,48.9,31.03,West,268,3.0,6.0,62,0.00,,,0.00,meteohub,2013-10-05 00:42:00,
2013-10-04 20:47:00,62.1,48.9,31.03,West,270,4.0,6.0,62,0.00,,,0.00,meteohub,2013-10-05 00:47:00,
2013-10-04 20:53:00,62.2,49.1,31.03,West,276,3.0,6.0,62,0.00,,,0.00,meteohub,2013-10-05 00:53:00,
2013-10-04 20:58:00,62.2,49.1,31.03,West,271,3.0,4.0,62,0.00,,,0.00,meteohub,2013-10-05 00:58:00,
2013-10-04 21:03:00,62.4,49.6,31.03,West,273,0.0,4.0,63,0.00,,,0.00,meteohub,2013-10-05 01:03:00,
2013-10-04 21:08:00,62.6,49.5,31.03,WNW,296,3.0,4.0,62,0.00,,,0.00,meteohub,2013-10-05 01:08:00,
2013-10-04 21:14:00,62.6,49.5,31.03,NW,319,3.0,4.0,62,0.00,,,0.00,meteohub,2013-10-05 01:14:00,
2013-10-04 21:19:00,62.6,49.5,31.03,NW,314,3.0,3.0,62,0.00,,,0.00,meteohub,2013-10-05 01:19:00,
2013-10-04 21:24:00,62.6,49.5,31.03,NW,310,0.0,4.0,62,0.00,,,0.00,meteohub,2013-10-05 01:24:00,
2013-10-04 21:29:00,62.6,49.5,31.03,NW,310,0.0,4.0,62,0.00,,,0.00,meteohub,2013-10-05 01:29:00,
2013-10-04 21:34:00,62.6,49.8,31.03,NW,310,0.0,4.0,63,0.00,,,0.00,meteohub,2013-10-05 01:34:00,
2013-10-04 21:40:00,62.6,49.8,31.03,NW,310,0.0,2.0,63,0.00,,,0.00,meteohub,2013-10-05 01:40:00,
2013-10-04 21:45:00,62.6,49.8,31.03,NW,310,0.0,0.0,63,0.00,,,0.00,meteohub,2013-10-05 01:45:00,
2013-10-04 21:50:00,62.6,49.8,31.03,WNW,301,0.0,0.0,63,0.00,,,0.00,meteohub,2013-10-05 01:50:00,
2013-10-04 21:55:00,62.6,49.8,31.03,West,273,0.0,0.0,63,0.00,,,0.00,meteohub,2013-10-05 01:55:00,
2013-10-04 22:00:00,62.6,49.8,31.03,WNW,286,3.0,4.0,63,0.00,,,0.00,meteohub,2013-10-05 02:00:00,
2013-10-04 22:06:00,62.6,49.8,31.03,WNW,298,4.0,4.0,63,0.00,,,0.00,meteohub,2013-10-05 02:06:00,
2013-10-04 22:11:00,62.8,50.0,31.03,WNW,298,3.0,5.0,63,0.00,,,0.00,meteohub,2013-10-05 02:11:00,
2013-10-04 22:16:00,62.8,50.0,31.03,WNW,297,0.0,5.0,63,0.00,,,0.00,meteohub,2013-10-05 02:16:00,
2013-10-04 22:21:00,62.8,50.0,31.03,WNW,297,0.0,5.0,63,0.00,,,0.00,meteohub,2013-10-05 02:21:00,
2013-10-04 22:26:00,63.0,50.2,31.03,WNW,297,0.0,3.0,63,0.00,,,0.00,meteohub,2013-10-05 02:26:00,
2013-10-04 22:32:00,63.0,50.2,31.03,WNW,297,0.0,3.0,63,0.00,,,0.00,meteohub,2013-10-05 02:32:00,
2013-10-04 22:37:00,63.0,50.2,31.03,WNW,297,0.0,0.0,63,0.00,,,0.00,meteohub,2013-10-05 02:37:00,
2013-10-04 22:42:00,63.0,50.2,31.03,WNW,297,0.0,0.0,63,0.00,,,0.00,meteohub,2013-10-05 02:42:00,
2013-10-04 22:47:00,63.1,50.4,31.03,WNW,297,0.0,0.0,63,0.00,,,0.00,meteohub,2013-10-05 02:47:00,
2013-10-04 22:52:00,63.1,50.7,31.03,WNW,297,0.0,0.0,64,0.00,,,0.00,meteohub,2013-10-05 02:52:00,
2013-10-04 22:57:00,63.1,50.4,31.03,WNW,297,0.0,0.0,63,0.00,,,0.00,meteohub,2013-10-05 02:57:00,
2013-10-04 23:02:00,63.1,50.4,31.03,WNW,297,0.0,0.0,63,0.00,,,0.00,meteohub,2013-10-05 03:02:00,
2013-10-04 23:07:00,63.1,50.4,31.03,WNW,297,0.0,0.0,63,0.00,,,0.00,meteohub,2013-10-05 03:07:00,
2013-10-04 23:12:00,63.0,50.2,31.03,WNW,297,0.0,0.0,63,0.00,,,0.00,meteohub,2013-10-05 03:12:00,
2013-10-04 23:17:00,63.0,50.2,31.03,WNW,297,0.0,0.0,63,0.00,,,0.00,meteohub,2013-10-05 03:17:00,
2013-10-04 23:22:00,62.8,50.0,31.03,WNW,289,0.0,0.0,63,0.00,,,0.00,meteohub,2013-10-05 03:22:00,
2013-10-04 23:27:00,62.6,49.8,31.03,WNW,289,0.0,2.0,63,0.00,,,0.00,meteohub,2013-10-05 03:27:00,
2013-10-04 23:32:00,62.4,50.0,31.03,WNW,289,0.0,2.0,64,0.00,,,0.00,meteohub,2013-10-05 03:32:00,
2013-10-04 23:37:00,62.4,50.0,31.03,WNW,289,0.0,2.0,64,0.00,,,0.00,meteohub,2013-10-05 03:37:00,
2013-10-04 23:42:00,62.2,50.0,31.03,WNW,289,0.0,2.0,64,0.00,,,0.00,meteohub,2013-10-05 03:42:00,
2013-10-04 23:47:00,62.2,50.0,31.03,WNW,289,0.0,2.0,64,0.00,,,0.00,meteohub,2013-10-05 03:47:00,
2013-10-04 23:52:00,62.2,50.0,31.03,WNW,292,3.0,3.0,64,0.00,,,0.00,meteohub,2013-10-05 03:52:00,
2013-10-04 23:57:00,62.2,50.0,31.03,WNW,286,0.0,4.0,64,0.00,,,0.00,meteohub,2013-10-05 03:57:00,